Time;durP1;ratioP1;P1;durP2;ratioP2;P2;SDS_P1;SDS_P2;PMS_P1;PMS_P2;Temp;Humidity;BMP_temperature;BMP_pressure;BME280_temperature;BME280_humidity;BME280_pressure;Samples;Min_cycle;Max_cycle;Signal;HPM_P1;HPM_P2
2022/11/23 00:01:26;;;;;;;17.52;4.43;;;;;;;7.27;100.00;99512.38;5057533;28;20123;-88
2022/11/23 00:03:56;;;;;;;14.20;4.50;;;;;;;7.28;100.00;99515.84;5057662;28;20063;-88
2022/11/23 00:06:23;;;;;;;12.23;3.70;;;;;;;7.23;100.00;99506.53;5057476;28;20025;-88
2022/11/23 00:08:50;;;;;;;11.45;3.67;;;;;;;7.25;100.00;99513.50;5059412;28;20029;-88
2022/11/23 00:11:16;;;;;;;15.10;4.18;;;;;;;7.22;100.00;99511.94;5057465;28;20048;-88
2022/11/23 00:13:42;;;;;;;15.82;4.53;;;;;;;7.28;100.00;99521.13;5037691;28;20486;-88
2022/11/23 00:16:12;;;;;;;13.95;3.90;;;;;;;7.25;100.00;99518.78;5036533;28;20025;-88
2022/11/23 00:18:42;;;;;;;13.05;3.58;;;;;;;7.21;100.00;99516.38;5036928;28;20053;-88
2022/11/23 00:21:10;;;;;;;14.77;4.30;;;;;;;7.29;100.00;99525.47;5038371;28;20025;-88
2022/11/23 00:23:36;;;;;;;14.13;4.25;;;;;;;7.22;100.00;99512.75;5043567;28;20498;-88
2022/11/23 00:26:02;;;;;;;13.80;3.95;;;;;;;7.28;100.00;99531.69;5058064;28;20029;-88
2022/11/23 00:28:27;;;;;;;11.75;3.30;;;;;;;7.26;100.00;99525.72;5057096;28;20074;-88
2022/11/23 00:30:53;;;;;;;11.82;3.47;;;;;;;7.27;100.00;99530.88;5056858;28;20038;-88
2022/11/23 00:33:18;;;;;;;15.88;3.53;;;;;;;7.27;100.00;99524.75;5056391;28;20028;-87
2022/11/23 00:35:46;;;;;;;12.88;3.50;;;;;;;7.25;100.00;99527.53;5058107;28;20422;-88
2022/11/23 00:38:14;;;;;;;14.77;3.65;;;;;;;7.26;100.00;99531.00;5056464;28;20036;-88
2022/11/23 00:40:42;;;;;;;11.07;3.35;;;;;;;7.27;100.00;99537.97;5057479;28;20029;-88
2022/11/23 00:43:07;;;;;;;14.70;3.97;;;;;;;7.26;100.00;99539.78;5057567;28;20068;-88
2022/11/23 00:45:32;;;;;;;12.43;3.28;;;;;;;7.29;100.00;99536.84;5057508;28;20024;-88
2022/11/23 00:47:58;;;;;;;12.93;3.60;;;;;;;7.29;100.00;99538.66;5057582;28;20025;-88
2022/11/23 00:50:23;;;;;;;15.23;3.40;;;;;;;7.27;100.00;99532.69;5057009;28;20059;-88
2022/11/23 00:52:49;;;;;;;14.20;3.47;;;;;;;7.31;100.00;99539.38;5055878;28;20399;-88
2022/11/23 00:55:14;;;;;;;12.77;3.80;;;;;;;7.30;100.00;99540.34;5056007;28;20475;-88
2022/11/23 00:57:39;;;;;;;10.70;3.05;;;;;;;7.31;100.00;99542.88;5056844;28;20497;-88
2022/11/23 01:00:06;;;;;;;16.27;3.17;;;;;;;7.29;100.00;99538.66;5055509;28;20028;-88
2022/11/23 01:02:35;;;;;;;13.52;3.42;;;;;;;7.27;100.00;99541.44;5056925;28;20060;-88
2022/11/23 01:05:00;;;;;;;17.02;4.45;;;;;;;7.33;100.00;99545.38;5055549;28;20498;-88
2022/11/23 01:07:29;;;;;;;10.27;3.45;;;;;;;7.29;100.00;99547.41;5056082;28;20099;-88
2022/11/23 01:09:54;;;;;;;12.25;3.47;;;;;;;7.31;100.00;99549.94;5056834;28;20025;-88
2022/11/23 01:12:20;;;;;;;9.77;3.08;;;;;;;7.30;100.00;99545.63;5055939;28;20482;-88
2022/11/23 01:14:45;;;;;;;10.63;3.20;;;;;;;7.29;100.00;99544.78;5056254;28;20035;-88
2022/11/23 01:17:12;;;;;;;11.55;2.88;;;;;;;7.31;100.00;99548.16;5057795;28;20029;-88
2022/11/23 01:19:37;;;;;;;12.15;3.03;;;;;;;7.29;100.00;99538.66;5056524;28;20017;-88
2022/11/23 01:22:02;;;;;;;12.73;3.47;;;;;;;7.31;100.00;99547.28;5056596;28;20387;-88
2022/11/23 01:24:28;;;;;;;8.45;2.70;;;;;;;7.30;100.00;99550.91;5056455;28;20481;-88
2022/11/23 01:26:56;;;;;;;9.73;3.13;;;;;;;7.31;100.00;99556.06;5056335;28;20025;-88
2022/11/23 01:29:23;;;;;;;13.68;3.25;;;;;;;7.27;100.00;99551.16;5055927;28;20021;-88
2022/11/23 01:31:48;;;;;;;11.60;2.90;;;;;;;7.27;100.00;99546.72;5055703;28;20028;-88
2022/11/23 01:34:15;;;;;;;8.68;3.35;;;;;;;7.28;100.00;99558.09;5055860;28;20033;-88
2022/11/23 01:36:41;;;;;;;12.80;2.83;;;;;;;7.31;100.00;99563.13;5055667;28;20132;-88
2022/11/23 01:39:06;;;;;;;15.48;2.92;;;;;;;7.28;100.00;99560.75;5057024;28;20103;-88
2022/11/23 01:41:35;;;;;;;10.07;2.90;;;;;;;7.28;100.00;99569.53;5055590;28;20063;-88
2022/11/23 01:44:19;;;;;;;14.17;3.60;;;;;;;7.28;100.00;99560.75;5056525;28;20047;-88
2022/11/23 01:46:45;;;;;;;12.50;3.00;;;;;;;7.29;100.00;99575.63;5043617;28;20036;-88
2022/11/23 01:49:10;;;;;;;10.98;3.20;;;;;;;7.29;100.00;99565.91;5054944;28;20037;-88
2022/11/23 01:51:43;;;;;;;12.70;3.08;;;;;;;7.32;100.00;99578.03;5054521;28;20021;-88
2022/11/23 01:54:13;;;;;;;12.63;3.08;;;;;;;7.29;100.00;99570.34;5056861;28;20020;-88
2022/11/23 01:56:44;;;;;;;10.15;2.83;;;;;;;7.33;100.00;99577.06;5072567;28;20029;-88
2022/11/23 01:59:15;;;;;;;15.00;3.25;;;;;;;7.34;100.00;99581.38;5068003;28;20032;-88
2022/11/23 02:01:42;;;;;;;11.82;3.40;;;;;;;7.32;100.00;99575.38;5061546;28;20029;-88
2022/11/23 02:04:10;;;;;;;14.27;2.75;;;;;;;7.29;100.00;99571.19;5061017;28;20029;-88
2022/11/23 02:06:36;;;;;;;16.38;2.75;;;;;;;7.33;100.00;99580.53;5059452;28;20071;-88
2022/11/23 02:09:02;;;;;;;10.93;2.95;;;;;;;7.34;100.00;99579.56;5055947;28;20025;-88
2022/11/23 02:11:27;;;;;;;12.60;3.22;;;;;;;7.32;100.00;99576.22;5054598;28;20084;-88
2022/11/23 02:13:56;;;;;;;8.90;2.90;;;;;;;7.38;100.00;99590.72;5055745;28;20521;-88
2022/11/23 02:16:24;;;;;;;11.52;2.83;;;;;;;7.34;100.00;99582.19;5054526;28;20379;-87
2022/11/23 02:18:52;;;;;;;19.63;3.50;;;;;;;7.34;100.00;99578.72;5054712;28;20456;-87
2022/11/23 02:21:18;;;;;;;13.77;3.13;;;;;;;7.35;100.00;99580.41;5054543;28;20028;-88
2022/11/23 02:24:11;;;;;;;11.25;3.33;;;;;;;7.36;100.00;99580.28;5056195;28;20067;-88
2022/11/23 02:26:37;;;;;;;18.35;3.53;;;;;;;7.37;100.00;99584.59;5054741;28;20390;-88
2022/11/23 02:29:06;;;;;;;9.63;2.55;;;;;;;7.38;100.00;99590.72;5055190;28;20076;-88
2022/11/23 02:31:32;;;;;;;10.23;2.80;;;;;;;7.40;100.00;99594.09;5054067;28;20135;-88
2022/11/23 02:33:57;;;;;;;13.57;3.10;;;;;;;7.34;100.00;99587.47;5054615;28;20454;-88
2022/11/23 02:36:54;;;;;;;13.23;2.80;;;;;;;7.38;100.00;99588.91;5055793;28;20029;-88
2022/11/23 02:39:36;;;;;;;17.13;3.28;;;;;;;7.39;100.00;99597.69;5055843;28;20059;-88
2022/11/23 02:42:02;;;;;;;14.77;2.75;;;;;;;7.39;100.00;99605.59;5058699;28;20040;-88
2022/11/23 02:44:53;;;;;;;13.90;3.10;;;;;;;7.40;100.00;99594.09;5056797;28;20033;-87
2022/11/23 02:47:19;;;;;;;14.30;3.17;;;;;;;7.37;100.00;99604.91;5052995;28;20029;-88
2022/11/23 02:49:46;;;;;;;17.30;3.17;;;;;;;7.41;100.00;99608.94;5056772;28;20071;-88
2022/11/23 02:52:12;;;;;;;10.93;2.63;;;;;;;7.42;100.00;99600.06;5055590;28;20029;-88
2022/11/23 02:54:38;;;;;;;14.43;3.10;;;;;;;7.39;100.00;99598.53;5056753;28;20108;-87
2022/11/23 02:57:05;;;;;;;11.77;2.92;;;;;;;7.41;100.00;99599.25;5054650;28;20128;-88
2022/11/23 02:59:31;;;;;;;11.02;3.05;;;;;;;7.41;100.00;99595.75;5054076;28;20035;-88
2022/11/23 03:01:57;;;;;;;13.20;2.78;;;;;;;7.39;100.00;99602.97;5056094;28;20529;-88
2022/11/23 03:04:23;;;;;;;15.15;3.47;;;;;;;7.36;100.00;99595.28;5054117;28;20036;-88
2022/11/23 03:06:48;;;;;;;14.20;3.38;;;;;;;7.40;100.00;99602.00;5055441;28;20029;-88
2022/11/23 03:09:16;;;;;;;13.63;3.95;;;;;;;7.36;100.00;99604.06;5055547;28;20053;-88
2022/11/23 03:11:42;;;;;;;11.13;3.22;;;;;;;7.36;100.00;99605.84;5073497;28;20032;-88
2022/11/23 03:14:07;;;;;;;13.63;3.42;;;;;;;7.36;100.00;99614.63;5056177;28;20032;-88
2022/11/23 03:16:33;;;;;;;15.15;3.05;;;;;;;7.37;100.00;99610.19;5054037;28;20025;-88
2022/11/23 03:18:59;;;;;;;14.85;3.33;;;;;;;7.35;100.00;99612.13;5053896;28;20534;-88
2022/11/23 03:21:24;;;;;;;16.10;3.45;;;;;;;7.35;100.00;99605.03;5054561;28;20039;-88
2022/11/23 03:23:50;;;;;;;16.23;4.05;;;;;;;7.34;100.00;99607.78;5054895;28;20029;-88
2022/11/23 03:26:15;;;;;;;13.00;2.90;;;;;;;7.34;100.00;99615.72;5055410;28;20032;-87
2022/11/23 03:28:41;;;;;;;14.52;3.40;;;;;;;7.34;100.00;99613.06;5060298;28;20025;-87
2022/11/23 03:31:06;;;;;;;15.32;3.20;;;;;;;7.28;100.00;99608.28;5066314;28;20025;-88
2022/11/23 03:33:32;;;;;;;18.95;3.75;;;;;;;7.30;100.00;99601.09;5055766;28;20025;-87
2022/11/23 03:36:01;;;;;;;15.20;3.08;;;;;;;7.34;100.00;99607.78;5055095;28;20032;-88
2022/11/23 03:38:27;;;;;;;16.73;3.55;;;;;;;7.34;100.00;99603.34;5055185;28;20382;-87
2022/11/23 03:40:52;;;;;;;13.50;3.20;;;;;;;7.31;100.00;99611.53;5055203;28;20028;-88
2022/11/23 03:43:18;;;;;;;13.85;3.03;;;;;;;7.30;100.00;99604.56;5055559;28;20029;-87
2022/11/23 03:45:44;;;;;;;13.35;3.35;;;;;;;7.28;100.00;99606.50;5056578;28;20025;-86
2022/11/23 03:48:09;;;;;;;16.95;3.05;;;;;;;7.28;100.00;99601.22;5068064;28;20028;-88
2022/11/23 03:50:35;;;;;;;17.08;3.83;;;;;;;7.29;100.00;99602.06;5075479;28;20048;-88
2022/11/23 03:53:00;;;;;;;14.70;3.25;;;;;;;7.26;100.00;99597.88;5080987;28;20024;-88
2022/11/23 03:55:26;;;;;;;16.00;4.10;;;;;;;7.24;100.00;99599.78;5059983;28;20097;-87
2022/11/23 03:57:58;;;;;;;11.90;2.80;;;;;;;7.30;100.00;99611.66;5061713;28;20021;-87
2022/11/23 04:00:24;;;;;;;14.05;3.40;;;;;;;7.29;100.00;99613.44;5078950;28;20020;-88
2022/11/23 04:02:50;;;;;;;11.55;3.10;;;;;;;7.22;100.00;99601.72;5077908;28;20032;-87
2022/11/23 04:05:15;;;;;;;13.43;3.28;;;;;;;7.24;100.00;99610.34;5074344;28;20026;-87
2022/11/23 04:07:40;;;;;;;17.90;3.42;;;;;;;7.25;100.00;99619.97;5059890;28;20449;-87
2022/11/23 04:10:06;;;;;;;15.38;4.28;;;;;;;7.24;100.00;99620.91;5058779;28;20117;-87
2022/11/23 04:12:32;;;;;;;15.52;3.28;;;;;;;7.25;100.00;99619.13;5058640;28;20021;-87
2022/11/23 04:14:57;;;;;;;14.05;3.40;;;;;;;7.21;100.00;99611.47;5059043;28;20028;-88
2022/11/23 04:17:23;;;;;;;16.50;3.45;;;;;;;7.26;100.00;99619.00;5058411;28;20025;-87
2022/11/23 04:19:48;;;;;;;10.32;3.25;;;;;;;7.29;100.00;99618.72;5058352;28;20025;-87
2022/11/23 04:22:13;;;;;;;12.48;2.97;;;;;;;7.23;100.00;99609.53;5058806;28;20024;-87
2022/11/23 04:24:42;;;;;;;17.02;3.60;;;;;;;7.25;100.00;99609.41;5059782;28;20029;-87
2022/11/23 04:27:07;;;;;;;11.50;3.20;;;;;;;7.27;100.00;99607.47;5053075;28;20029;-87
2022/11/23 04:29:35;;;;;;;15.20;4.03;;;;;;;7.29;100.00;99615.25;5057132;28;20039;-87
2022/11/23 04:32:00;;;;;;;13.32;3.13;;;;;;;7.28;100.00;99608.28;5056865;28;20013;-87
2022/11/23 04:34:26;;;;;;;12.65;3.78;;;;;;;7.26;100.00;99597.03;5056995;28;20489;-87
2022/11/23 04:36:54;;;;;;;15.27;3.47;;;;;;;7.28;100.00;99611.78;5045454;28;20024;-87
2022/11/23 04:39:19;;;;;;;9.13;2.90;;;;;;;7.23;100.00;99604.25;5057257;28;20025;-87
2022/11/23 04:41:47;;;;;;;14.43;3.70;;;;;;;7.27;100.00;99612.75;5060089;28;20370;-87
2022/11/23 04:44:12;;;;;;;14.82;3.22;;;;;;;7.28;100.00;99617.06;5074762;28;20028;-86
2022/11/23 04:46:38;;;;;;;13.90;3.55;;;;;;;7.27;100.00;99615.38;5049767;28;20025;-87
2022/11/23 04:49:03;;;;;;;16.80;3.50;;;;;;;7.27;100.00;99615.38;5065163;28;20039;-87
2022/11/23 04:51:28;;;;;;;11.15;3.30;;;;;;;7.22;100.00;99614.94;5074463;28;20025;-88
2022/11/23 04:53:54;;;;;;;15.00;3.88;;;;;;;7.23;100.00;99619.25;5066443;28;20033;-87
2022/11/23 04:56:19;;;;;;;20.25;4.10;;;;;;;7.19;100.00;99612.53;5074894;28;20024;-87
2022/11/23 04:58:45;;;;;;;14.98;3.45;;;;;;;7.16;100.00;99611.00;5056976;28;20454;-88
2022/11/23 05:01:10;;;;;;;11.00;3.63;;;;;;;7.15;100.00;99613.75;5057245;28;20029;-86
2022/11/23 05:03:36;;;;;;;14.50;3.40;;;;;;;7.13;100.00;99613.88;5057934;28;20059;-87
2022/11/23 05:06:03;;;;;;;13.85;3.00;;;;;;;7.10;100.00;99610.66;5056713;28;20155;-87
2022/11/23 05:08:29;;;;;;;17.75;3.78;;;;;;;7.07;100.00;99609.09;5067131;28;20103;-88
2022/11/23 05:11:00;;;;;;;16.40;3.47;;;;;;;7.00;100.00;99600.00;5059315;28;20021;-88
2022/11/23 05:13:25;;;;;;;15.02;3.38;;;;;;;7.00;100.00;99603.47;5057220;28;20021;-87
2022/11/23 05:15:53;;;;;;;12.90;3.13;;;;;;;6.98;100.00;99604.59;5058440;28;20036;-87
2022/11/23 05:18:19;;;;;;;14.75;3.75;;;;;;;6.94;100.00;99601.34;5067490;28;20028;-87
2022/11/23 05:20:45;;;;;;;12.73;3.47;;;;;;;6.89;100.00;99598.22;5085947;28;20029;-87
2022/11/23 05:23:11;;;;;;;13.82;3.25;;;;;;;6.91;100.00;99606.03;5075611;28;20025;-87
2022/11/23 05:25:36;;;;;;;14.73;3.55;;;;;;;6.87;100.00;99596.69;5073619;28;20115;-87
2022/11/23 05:28:02;;;;;;;18.77;3.50;;;;;;;6.82;100.00;99595.25;5068762;28;20025;-87
2022/11/23 05:30:28;;;;;;;21.33;4.28;;;;;;;6.82;100.00;99605.81;5057164;28;20044;-87
2022/11/23 05:32:53;;;;;;;17.92;3.63;;;;;;;6.81;100.00;99604.16;5058618;28;20036;-87
2022/11/23 05:35:18;;;;;;;24.40;4.00;;;;;;;6.80;100.00;99602.47;5052779;28;20021;-87
2022/11/23 05:37:44;;;;;;;15.05;3.90;;;;;;;6.81;100.00;99606.78;5056657;28;20025;-87
2022/11/23 05:40:10;;;;;;;20.83;4.28;;;;;;;6.80;100.00;99613.03;5056418;28;20036;-87
2022/11/23 05:42:36;;;;;;;19.55;4.18;;;;;;;6.77;100.00;99615.91;5058893;28;20028;-87
2022/11/23 05:45:01;;;;;;;16.25;4.05;;;;;;;6.75;100.00;99611.72;5056709;28;20017;-87
2022/11/23 05:47:29;;;;;;;18.52;4.03;;;;;;;6.75;100.00;99617.00;5056983;28;20039;-87
2022/11/23 05:49:54;;;;;;;19.17;4.43;;;;;;;6.73;100.00;99609.22;5061581;28;20045;-87
2022/11/23 05:52:20;;;;;;;16.00;3.38;;;;;;;6.70;100.00;99609.44;5057305;28;20040;-87
2022/11/23 05:54:48;;;;;;;16.17;3.47;;;;;;;6.70;100.00;99614.72;5056530;28;20029;-88
2022/11/23 05:57:14;;;;;;;23.38;4.00;;;;;;;6.71;100.00;99621.69;5056956;28;20033;-87
2022/11/23 05:59:42;;;;;;;16.40;3.97;;;;;;;6.68;100.00;99624.56;5060412;28;20051;-87
2022/11/23 06:02:07;;;;;;;20.55;4.10;;;;;;;6.66;100.00;99622.06;5077027;28;20029;-87
2022/11/23 06:04:35;;;;;;;21.67;4.78;;;;;;;6.62;100.00;99611.84;5052964;28;20158;-88
2022/11/23 06:07:01;;;;;;;16.40;4.03;;;;;;;6.61;100.00;99616.31;5051064;28;20025;-89
2022/11/23 06:09:27;;;;;;;19.38;4.40;;;;;;;6.64;100.00;99626.63;5070333;28;20378;-88
2022/11/23 06:11:55;;;;;;;18.40;3.92;;;;;;;6.61;100.00;99621.59;5063155;28;20027;-88
2022/11/23 06:14:21;;;;;;;18.98;3.90;;;;;;;6.63;100.00;99624.09;5058196;28;20048;-87
2022/11/23 06:16:48;;;;;;;16.92;3.53;;;;;;;6.58;100.00;99621.81;5064317;28;20021;-88
2022/11/23 06:19:15;;;;;;;15.35;3.42;;;;;;;6.59;100.00;99612.09;5054169;28;20064;-88
2022/11/23 06:21:41;;;;;;;21.70;4.43;;;;;;;6.61;100.00;99624.22;5054411;28;20028;-87
2022/11/23 06:24:06;;;;;;;19.17;4.13;;;;;;;6.59;100.00;99618.22;5055712;28;20020;-88
2022/11/23 06:26:32;;;;;;;18.77;4.13;;;;;;;6.65;100.00;99620.38;5054741;28;20021;-88
2022/11/23 06:28:57;;;;;;;14.38;3.63;;;;;;;6.64;100.00;99628.41;5056294;28;20047;-88
2022/11/23 06:31:23;;;;;;;19.40;4.38;;;;;;;6.61;100.00;99626.00;5064562;28;20075;-87
2022/11/23 06:33:48;;;;;;;23.00;3.85;;;;;;;6.60;100.00;99621.72;5058739;28;20036;-87
2022/11/23 06:36:16;;;;;;;22.38;4.00;;;;;;;6.62;100.00;99639.06;5062579;28;20032;-88
2022/11/23 06:38:44;;;;;;;23.08;4.35;;;;;;;6.64;100.00;99631.91;5044186;28;20021;-88
2022/11/23 06:41:09;;;;;;;18.98;4.63;;;;;;;6.63;100.00;99626.75;5066574;28;20029;-86
2022/11/23 06:43:37;;;;;;;15.60;4.18;;;;;;;6.62;100.00;99627.69;5061367;28;20037;-87
2022/11/23 06:46:05;;;;;;;18.70;4.05;;;;;;;6.62;100.00;99635.59;5080416;28;20044;-86
2022/11/23 06:48:33;;;;;;;21.88;4.13;;;;;;;6.59;100.00;99626.13;5065480;28;20027;-87
2022/11/23 06:51:02;;;;;;;18.90;4.00;;;;;;;6.63;100.00;99634.66;5057216;28;20113;-87
2022/11/23 06:53:28;;;;;;;19.20;5.17;;;;;;;6.64;100.00;99636.31;5041652;28;20033;-87
2022/11/23 06:55:58;;;;;;;16.17;4.07;;;;;;;6.63;100.00;99638.13;5038154;28;20338;-87
2022/11/23 06:58:30;;;;;;;16.77;4.50;;;;;;;6.63;100.00;99643.41;5037154;28;20025;-87
2022/11/23 07:01:03;;;;;;;18.08;3.97;;;;;;;6.61;100.00;99636.56;5038656;28;20076;-87
2022/11/23 07:03:28;;;;;;;15.93;3.90;;;;;;;6.58;100.00;99648.22;5039238;28;20417;-86
2022/11/23 07:05:54;;;;;;;19.05;3.80;;;;;;;6.57;100.00;99640.41;5048551;28;20108;-85
2022/11/23 07:08:20;;;;;;;14.30;3.53;;;;;;;6.57;100.00;99654.44;5057160;28;20029;-87
2022/11/23 07:10:45;;;;;;;14.75;3.67;;;;;;;6.61;100.00;99660.31;5055972;28;20047;-86
2022/11/23 07:13:11;;;;;;;19.77;4.15;;;;;;;6.56;100.00;99662.47;5052944;28;20068;-88
2022/11/23 07:15:37;;;;;;;16.20;3.97;;;;;;;6.55;100.00;99661.63;5055858;28;20055;-87
2022/11/23 07:18:04;;;;;;;19.40;4.30;;;;;;;6.57;100.00;99674.72;5056338;28;20068;-88
2022/11/23 07:20:31;;;;;;;18.08;3.47;;;;;;;6.53;100.00;99673.25;5049695;28;20363;-88
2022/11/23 07:23:04;;;;;;;15.63;3.10;;;;;;;6.54;100.00;99680.22;5035901;28;20065;-87
2022/11/23 07:25:31;;;;;;;18.73;4.72;;;;;;;6.50;100.00;99684.06;5038294;28;20029;-88
2022/11/23 07:27:58;;;;;;;16.60;4.03;;;;;;;6.46;100.00;99689.59;5047647;28;20033;-88
2022/11/23 07:30:25;;;;;;;21.20;4.07;;;;;;;6.45;100.00;99687.88;5059753;28;20033;-88
2022/11/23 07:33:02;;;;;;;17.75;3.85;;;;;;;6.46;100.00;99694.00;5061527;28;20092;-87
2022/11/23 07:35:35;;;;;;;12.40;3.25;;;;;;;6.39;100.00;99685.72;5062370;28;20029;-88
2022/11/23 07:38:05;;;;;;;18.67;4.20;;;;;;;6.36;100.00;99691.25;5058959;28;20455;-88
2022/11/23 07:40:33;;;;;;;21.50;4.45;;;;;;;6.40;100.00;99699.78;5061124;28;20530;-87
2022/11/23 07:43:00;;;;;;;15.07;3.45;;;;;;;6.33;100.00;99696.78;5062525;28;20045;-87
2022/11/23 07:45:26;;;;;;;14.00;3.45;;;;;;;6.32;100.00;99702.16;5060527;28;20390;-88
2022/11/23 07:48:02;;;;;;;13.50;3.25;;;;;;;6.33;100.00;99712.59;5059808;28;20036;-88
2022/11/23 07:50:53;;;;;;;15.13;3.33;;;;;;;6.29;100.00;99705.84;5045122;28;20041;-87
2022/11/23 07:53:22;;;;;;;15.88;3.40;;;;;;;6.30;100.00;99718.09;5059387;28;20041;-88
2022/11/23 07:55:48;;;;;;;18.35;3.70;;;;;;;6.26;100.00;99714.00;5060558;28;20108;-88
2022/11/23 07:58:13;;;;;;;17.55;4.57;;;;;;;6.24;100.00;99718.56;5077254;28;20075;-88
2022/11/23 08:00:43;;;;;;;16.52;4.15;;;;;;;6.24;100.00;99719.38;5065293;28;20033;-87
2022/11/23 08:03:13;;;;;;;21.15;3.80;;;;;;;6.19;100.00;99713.63;5079173;28;20051;-87
2022/11/23 08:05:40;;;;;;;21.08;4.88;;;;;;;6.22;100.00;99731.84;5061025;28;20056;-87
2022/11/23 08:08:14;;;;;;;19.73;4.00;;;;;;;6.21;100.00;99716.16;5059444;28;20040;-88
2022/11/23 08:10:39;;;;;;;15.57;4.03;;;;;;;6.23;100.00;99724.81;5059756;28;20372;-88
2022/11/23 08:13:05;;;;;;;15.57;3.92;;;;;;;6.18;100.00;99719.00;5054145;28;20022;-87
2022/11/23 08:15:36;;;;;;;17.75;3.45;;;;;;;6.22;99.92;99718.66;5060216;28;20037;-87
2022/11/23 08:18:03;;;;;;;17.30;3.85;;;;;;;6.20;99.88;99715.31;5075491;28;20047;-87
2022/11/23 08:20:29;;;;;;;20.98;4.78;;;;;;;6.23;99.74;99714.25;5060887;28;20392;-87
2022/11/23 08:22:55;;;;;;;14.70;3.40;;;;;;;6.26;99.63;99714.00;5060793;28;20020;-88
2022/11/23 08:25:25;;;;;;;16.05;4.00;;;;;;;6.28;99.40;99720.03;5060032;28;20017;-88
2022/11/23 08:27:59;;;;;;;16.33;3.70;;;;;;;6.29;99.49;99717.25;5072836;28;20029;-88
2022/11/23 08:30:26;;;;;;;15.80;3.78;;;;;;;6.29;99.06;99714.63;5058907;28;20071;-88
2022/11/23 08:32:54;;;;;;;15.95;3.72;;;;;;;6.35;98.96;99721.22;5060599;28;20093;-87
2022/11/23 08:35:22;;;;;;;16.17;3.63;;;;;;;6.33;98.39;99723.13;5061189;28;20056;-89
2022/11/23 08:37:47;;;;;;;14.27;4.20;;;;;;;6.41;98.60;99736.56;5076582;28;20025;-87
2022/11/23 08:40:13;;;;;;;18.27;4.18;;;;;;;6.38;98.28;99720.13;5059509;28;20040;-87
2022/11/23 08:42:41;;;;;;;19.70;3.80;;;;;;;6.42;98.68;99722.41;5060016;28;20036;-88
2022/11/23 08:45:07;;;;;;;16.83;4.22;;;;;;;6.48;98.38;99735.13;5058888;28;20071;-87
2022/11/23 08:47:35;;;;;;;13.10;3.90;;;;;;;6.52;98.28;99738.38;5060701;28;20462;-88
2022/11/23 08:50:01;;;;;;;16.35;4.07;;;;;;;6.56;98.41;99731.91;5064240;28;20116;-86
2022/11/23 08:52:27;;;;;;;16.67;4.30;;;;;;;6.57;97.21;99732.75;5062377;28;20069;-89
2022/11/23 08:54:53;;;;;;;11.40;3.70;;;;;;;6.64;97.02;99737.44;5078985;28;20039;-87
2022/11/23 08:57:30;;;;;;;12.07;3.40;;;;;;;6.65;96.61;99720.63;5066391;28;20025;-86
2022/11/23 08:59:55;;;;;;;18.10;3.40;;;;;;;6.71;96.04;99718.47;5072566;28;20032;-87
2022/11/23 09:02:22;;;;;;;16.77;4.25;;;;;;;6.75;96.87;99712.84;5078999;28;20052;-88
2022/11/23 09:04:48;;;;;;;17.60;3.83;;;;;;;6.79;95.75;99716.91;5084642;28;20028;-86
2022/11/23 09:07:13;;;;;;;19.27;5.80;;;;;;;6.88;96.01;99718.00;5088226;28;20170;-89
2022/11/23 09:09:42;;;;;;;15.63;3.53;;;;;;;6.89;95.26;99718.81;5082447;28;20082;-88
2022/11/23 09:12:08;;;;;;;15.20;3.30;;;;;;;6.99;95.22;99717.13;5065426;28;20032;-88
2022/11/23 09:14:33;;;;;;;14.90;2.97;;;;;;;7.03;94.63;99722.03;5064368;28;20090;-88
2022/11/23 09:17:02;;;;;;;14.55;3.80;;;;;;;7.09;94.32;99719.88;5058669;28;20043;-89
2022/11/23 09:19:31;;;;;;;14.50;3.45;;;;;;;7.16;94.68;99708.69;5061573;28;20045;-89
2022/11/23 09:21:56;;;;;;;16.00;3.50;;;;;;;7.23;93.49;99706.41;5061755;28;20056;-88
2022/11/23 09:24:22;;;;;;;19.88;3.72;;;;;;;7.34;92.97;99713.44;5060106;28;20463;-88
2022/11/23 09:26:47;;;;;;;17.30;3.53;;;;;;;7.35;92.34;99702.75;5059373;28;20031;-88
2022/11/23 09:29:13;;;;;;;16.40;3.33;;;;;;;7.41;92.03;99701.41;5056846;28;20683;-88
2022/11/23 09:31:38;;;;;;;18.15;3.95;;;;;;;7.48;92.19;99710.53;5054678;28;20047;-87
2022/11/23 09:34:11;;;;;;;11.82;3.33;;;;;;;7.49;90.69;99688.41;5055158;28;20580;-87
2022/11/23 09:36:36;;;;;;;12.85;2.90;;;;;;;7.58;90.31;99694.75;5060338;28;20036;-88
2022/11/23 09:39:02;;;;;;;17.58;3.70;;;;;;;7.60;90.32;99698.94;5061624;28;20032;-88
2022/11/23 09:41:53;;;;;;;10.88;3.15;;;;;;;7.66;89.79;99692.31;5063400;28;20033;-88
2022/11/23 09:45:01;;;;;;;14.80;2.95;;;;;;;7.70;90.72;99684.97;5061907;28;20025;-89
2022/11/23 09:47:32;;;;;;;13.75;2.97;;;;;;;7.77;90.08;99678.19;5070531;28;20025;-88
2022/11/23 09:50:08;;;;;;;13.10;3.47;;;;;;;7.86;90.98;99676.59;5085071;28;20053;-88
2022/11/23 09:52:46;;;;;;;13.90;3.20;;;;;;;7.91;88.83;99666.47;5083932;28;20033;-87
2022/11/23 09:55:23;;;;;;;13.70;3.28;;;;;;;7.95;88.40;99659.97;5068679;28;20056;-88
2022/11/23 09:57:58;;;;;;;15.00;3.58;;;;;;;7.96;87.39;99659.84;5063932;28;20063;-88
2022/11/23 10:00:29;;;;;;;14.45;3.25;;;;;;;8.03;87.52;99661.97;5062842;28;20036;-87
2022/11/23 10:03:04;;;;;;;16.83;3.83;;;;;;;8.08;86.30;99662.41;5041812;28;20044;-89
2022/11/23 10:05:34;;;;;;;10.70;2.60;;;;;;;8.12;86.35;99658.53;5058173;28;20051;-88
2022/11/23 10:08:20;;;;;;;14.82;2.95;;;;;;;8.17;87.21;99645.75;5061438;28;20029;-88
2022/11/23 10:11:27;;;;;;;11.45;2.70;;;;;;;8.21;86.94;99648.94;5064939;28;20402;-88
2022/11/23 10:14:23;;;;;;;12.75;3.92;;;;;;;8.27;86.31;99643.97;5063561;28;20056;-88
2022/11/23 10:17:40;;;;;;;17.55;3.60;;;;;;;8.34;86.67;99642.50;5081222;28;20032;-87
2022/11/23 10:20:31;;;;;;;12.05;3.05;;;;;;;8.44;87.40;99637.28;5025858;28;20138;-88
2022/11/23 10:23:02;;;;;;;13.00;2.50;;;;;;;8.54;85.71;99636.44;5023672;28;20029;-88
2022/11/23 10:25:48;;;;;;;9.63;2.67;;;;;;;8.63;86.07;99644.44;5033101;28;20124;-88
2022/11/23 10:28:21;;;;;;;12.32;3.15;;;;;;;8.69;84.79;99643.03;5042861;28;20029;-87
2022/11/23 10:31:05;;;;;;;14.45;2.88;;;;;;;8.77;84.37;99655.63;5048206;28;20455;-87
2022/11/23 10:34:02;;;;;;;10.48;2.40;;;;;;;8.81;84.79;99646.41;5038263;28;20091;-88
2022/11/23 10:36:29;;;;;;;11.27;2.75;;;;;;;8.84;83.89;99633.78;5045401;28;20033;-88
2022/11/23 10:39:12;;;;;;;13.48;3.60;;;;;;;8.93;84.13;99637.41;5042553;28;20029;-88
2022/11/23 10:41:40;;;;;;;11.45;2.83;;;;;;;9.02;84.34;99627.78;5041803;28;20029;-88
2022/11/23 10:44:23;;;;;;;9.07;2.95;;;;;;;9.10;83.64;99627.13;5042686;28;20033;-88
2022/11/23 10:47:03;;;;;;;8.57;2.67;;;;;;;9.19;82.21;99634.22;5043905;28;20022;-88
2022/11/23 10:49:32;;;;;;;14.93;3.33;;;;;;;9.15;81.58;99625.72;5044696;28;20050;-88
2022/11/23 10:52:02;;;;;;;10.60;3.43;;;;;;;9.22;82.23;99631.28;5043939;28;20025;-88
2022/11/23 10:54:36;;;;;;;7.20;2.30;;;;;;;9.27;82.99;99634.34;5043800;28;20387;-88
2022/11/23 10:57:33;;;;;;;13.13;2.58;;;;;;;9.24;82.45;99640.78;5041026;28;20087;-87
2022/11/23 11:00:14;;;;;;;11.77;2.63;;;;;;;9.25;81.99;99628.38;5044007;28;20025;-88
2022/11/23 11:03:02;;;;;;;13.27;2.67;;;;;;;9.29;82.63;99620.97;5041783;28;20028;-88
2022/11/23 11:05:50;;;;;;;8.95;2.40;;;;;;;9.37;81.24;99614.00;5046709;28;20040;-88
2022/11/23 11:08:18;;;;;;;13.85;3.00;;;;;;;9.24;80.96;99592.25;5047556;28;20029;-87
2022/11/23 11:10:58;;;;;;;15.50;2.67;;;;;;;9.30;80.95;99604.94;5047357;28;20030;-86
2022/11/23 11:13:29;;;;;;;12.23;3.15;;;;;;;9.28;81.21;99601.59;5049670;28;20128;-88
2022/11/23 11:16:06;;;;;;;8.57;2.35;;;;;;;9.29;81.15;99605.06;5045553;28;20120;-87
2022/11/23 11:18:36;;;;;;;13.70;2.60;;;;;;;9.24;79.91;99597.53;5047787;28;20398;-87
2022/11/23 11:21:23;;;;;;;7.80;2.28;;;;;;;9.22;80.45;99604.78;5045137;28;20495;-88
2022/11/23 11:24:18;;;;;;;9.43;2.35;;;;;;;9.23;80.91;99595.88;5058913;28;20391;-88
2022/11/23 11:27:15;;;;;;;7.10;2.30;;;;;;;9.27;82.21;99602.56;5062655;28;20490;-88
2022/11/23 11:29:47;;;;;;;5.78;2.30;;;;;;;9.26;79.70;99577.06;5087623;28;20028;-88
2022/11/23 11:32:20;;;;;;;7.32;2.67;;;;;;;9.24;80.69;99581.63;5095668;28;20016;-87
2022/11/23 11:34:52;;;;;;;5.97;1.98;;;;;;;9.25;79.29;99572.72;5094907;28;20071;-87
2022/11/23 11:37:23;;;;;;;8.38;1.77;;;;;;;9.30;79.51;99572.31;5086065;28;20028;-88
2022/11/23 11:39:56;;;;;;;8.63;2.38;;;;;;;9.33;79.13;99567.56;5086710;28;20102;-86